createdAt,value
2019-01-12T00:00:40.181Z,102403.13
2019-01-12T00:01:40.506Z,102402.70
2019-01-12T00:02:40.790Z,102403.20
2019-01-12T00:03:41.111Z,102404.05
2019-01-12T00:04:41.546Z,102404.13
2019-01-12T00:05:41.836Z,102404.47
2019-01-12T00:06:42.298Z,102404.21
2019-01-12T00:07:42.571Z,102404.64
2019-01-12T00:08:42.936Z,102404.81
2019-01-12T00:09:43.255Z,102405.14
2019-01-12T00:10:43.614Z,102405.41
2019-01-12T00:11:43.965Z,102406.08
2019-01-12T00:12:44.234Z,102406.74
2019-01-12T00:13:44.516Z,102406.89
2019-01-12T00:14:44.777Z,102406.91
2019-01-12T00:15:45.050Z,102407.06
2019-01-12T00:16:45.310Z,102407.32
2019-01-12T00:17:45.568Z,102407.75
2019-01-12T00:17:54.934Z,102410.43
2019-01-12T00:18:55.202Z,102410.37
2019-01-12T00:19:55.468Z,102410.94
2019-01-12T00:20:55.878Z,102410.59
2019-01-12T00:21:56.165Z,102410.95
2019-01-12T00:22:56.560Z,102410.94
2019-01-12T00:23:56.876Z,102411.12
2019-01-12T00:24:57.274Z,102411.44
2019-01-12T00:25:57.557Z,102411.68
2019-01-12T00:26:57.940Z,102412.13
2019-01-12T00:27:58.153Z,102412.03
2019-01-12T00:28:58.410Z,102413.03
2019-01-12T00:29:58.847Z,102413.37
2019-01-12T00:30:59.164Z,102413.70
2019-01-12T00:31:59.600Z,102414.39
2019-01-12T00:33:00.014Z,102414.62
2019-01-12T00:33:59.448Z,102415.05
2019-01-12T00:35:00.832Z,102415.80
2019-01-12T00:36:01.253Z,102415.80
2019-01-12T00:37:01.701Z,102415.98
2019-01-12T00:38:01.976Z,102415.64
2019-01-12T00:39:02.288Z,102416.14
2019-01-12T00:40:02.526Z,102416.22
2019-01-12T00:41:02.813Z,102416.48
2019-01-12T00:42:03.309Z,102416.14
2019-01-12T00:43:03.790Z,102415.80
2019-01-12T00:44:04.478Z,102415.90
2019-01-12T00:45:04.762Z,102416.57
2019-01-12T00:46:05.048Z,102416.73
2019-01-12T00:47:05.363Z,102417.80
2019-01-12T00:48:05.610Z,102417.89
2019-01-12T00:49:05.886Z,102418.16
2019-01-12T00:50:06.158Z,102418.38
2019-01-12T00:51:06.468Z,102418.73
2019-01-12T00:52:06.939Z,102418.72
2019-01-12T00:53:07.236Z,102418.57
2019-01-12T00:54:07.615Z,102419.00
2019-01-12T00:55:07.945Z,102418.89
2019-01-12T00:56:08.246Z,102419.00
2019-01-12T00:57:09.256Z,102418.65
2019-01-12T00:58:08.405Z,102418.57
2019-01-12T00:59:09.737Z,102418.89
2019-01-12T01:00:10.000Z,102418.81
2019-01-12T01:01:10.402Z,102419.08
2019-01-12T01:02:10.698Z,102419.58
2019-01-12T01:03:10.963Z,102420.08
2019-01-12T01:03:19.101Z,102423.52
2019-01-12T01:04:19.322Z,102423.25
2019-01-12T01:05:20.644Z,102423.36
2019-01-12T01:06:20.957Z,102423.09
2019-01-12T01:07:21.455Z,102423.86
2019-01-12T01:08:21.767Z,102423.60
2019-01-12T01:09:22.211Z,102423.94
2019-01-12T01:10:22.626Z,102424.11
2019-01-12T01:11:22.901Z,102424.34
2019-01-12T01:12:23.296Z,102424.59
2019-01-12T01:13:24.000Z,102424.61
2019-01-12T01:14:24.343Z,102425.26
2019-01-12T01:15:24.639Z,102425.77
2019-01-12T01:16:24.952Z,102426.11
2019-01-12T01:17:25.183Z,102426.86
2019-01-12T01:18:25.436Z,102427.05
2019-01-12T01:19:25.738Z,102426.80
2019-01-12T01:20:26.081Z,102426.87
2019-01-12T01:21:26.385Z,102426.70
2019-01-12T01:22:26.693Z,102427.30
2019-01-12T01:23:27.090Z,102427.87
2019-01-12T01:24:27.531Z,102428.22
2019-01-12T01:25:27.840Z,102428.78
2019-01-12T01:26:28.544Z,102429.47
2019-01-12T01:27:28.825Z,102429.95
2019-01-12T01:28:29.118Z,102430.64
2019-01-12T01:29:29.412Z,102430.81
2019-01-12T01:30:29.733Z,102431.58
2019-01-12T01:31:30.057Z,102431.75
2019-01-12T01:32:30.490Z,102432.25
2019-01-12T01:33:30.790Z,102432.16
2019-01-12T01:34:31.198Z,102432.73
2019-01-12T01:35:32.087Z,102433.74
2019-01-12T01:36:32.404Z,102434.41
2019-01-12T01:37:32.787Z,102435.16
2019-01-12T01:38:33.071Z,102435.84
2019-01-12T01:39:33.381Z,102437.11
2019-01-12T01:40:33.705Z,102437.35
2019-01-12T01:41:34.084Z,102437.93
2019-01-12T01:42:34.423Z,102438.67
2019-01-12T01:43:34.773Z,102439.03
2019-01-12T01:44:35.080Z,102439.38
2019-01-12T01:45:35.691Z,102440.03
2019-01-12T01:46:36.115Z,102440.22
2019-01-12T01:46:46.038Z,102445.97
2019-01-12T01:47:47.310Z,102445.75
2019-01-12T01:48:47.546Z,102446.25
2019-01-12T01:49:48.148Z,102446.42
2019-01-12T01:50:48.413Z,102446.41
2019-01-12T01:51:48.978Z,102446.83
2019-01-12T01:52:49.298Z,102446.66
2019-01-12T01:53:49.615Z,102446.50
2019-01-12T01:54:52.778Z,102446.33
2019-01-12T01:55:49.290Z,102445.83
2019-01-12T01:56:49.498Z,102445.75
2019-01-12T01:57:51.199Z,102445.56
2019-01-12T01:58:51.482Z,102444.06
2019-01-12T01:59:51.830Z,102443.64
2019-01-12T02:00:52.152Z,102443.14
2019-01-12T02:01:52.535Z,102442.81
2019-01-12T02:02:52.830Z,102442.21
2019-01-12T02:03:53.095Z,102441.56
2019-01-12T02:04:53.389Z,102441.20
2019-01-12T02:05:52.568Z,102440.55
2019-01-12T02:06:53.936Z,102440.63
2019-01-12T02:07:54.210Z,102440.53
2019-01-12T02:08:54.514Z,102440.21
2019-01-12T02:09:54.747Z,102439.86
2019-01-12T02:10:55.219Z,102438.94
2019-01-12T02:11:55.508Z,102438.03
2019-01-12T02:12:55.904Z,102437.02
2019-01-12T02:13:55.095Z,102436.77
2019-01-12T02:14:56.356Z,102436.27
2019-01-12T02:15:56.624Z,102436.25
2019-01-12T02:16:56.885Z,102435.93
2019-01-12T02:17:57.210Z,102434.68
2019-01-12T02:18:57.489Z,102434.16
2019-01-12T02:19:58.001Z,102433.67
2019-01-12T02:20:58.288Z,102433.15
2019-01-12T02:21:58.579Z,102433.26
2019-01-12T02:22:58.880Z,102432.31
2019-01-12T02:23:59.612Z,102431.98
2019-01-12T02:25:00.254Z,102431.24
2019-01-12T02:25:59.648Z,102430.72
2019-01-12T02:27:00.901Z,102430.73
2019-01-12T02:28:01.152Z,102429.97
2019-01-12T02:29:02.050Z,102429.80
2019-01-12T02:30:02.568Z,102430.06
2019-01-12T02:31:02.999Z,102429.56
2019-01-12T02:32:03.009Z,102429.66
2019-01-12T02:32:13.068Z,102422.52
2019-01-12T02:33:13.671Z,102422.09
2019-01-12T02:34:14.123Z,102423.02
2019-01-12T02:35:14.416Z,102423.02
2019-01-12T02:36:14.857Z,102423.19
2019-01-12T02:37:15.190Z,102423.19
2019-01-12T02:38:15.459Z,102423.19
2019-01-12T02:39:15.709Z,102423.84
2019-01-12T02:40:16.235Z,102424.09
2019-01-12T02:41:16.571Z,102424.70
2019-01-12T02:42:16.804Z,102424.86
2019-01-12T02:43:17.051Z,102425.45
2019-01-12T02:44:17.270Z,102425.63
2019-01-12T02:45:17.538Z,102425.85
2019-01-12T02:46:18.010Z,102425.95
2019-01-12T02:47:18.320Z,102426.45
2019-01-12T02:48:19.213Z,102426.04
2019-01-12T02:49:19.520Z,102426.13
2019-01-12T02:50:19.952Z,102425.69
2019-01-12T02:51:20.262Z,102425.02
2019-01-12T02:52:20.643Z,102424.94
2019-01-12T02:53:20.921Z,102424.70
2019-01-12T02:54:21.201Z,102424.29
2019-01-12T02:55:21.446Z,102424.78
2019-01-12T02:56:21.888Z,102424.53
2019-01-12T02:57:22.145Z,102424.09
2019-01-12T02:58:22.367Z,102423.59
2019-01-12T02:59:22.643Z,102423.52
2019-01-12T03:00:22.952Z,102423.52
2019-01-12T03:01:23.372Z,102423.27
2019-01-12T03:02:23.749Z,102423.17
2019-01-12T03:03:24.045Z,102422.52
2019-01-12T03:04:24.530Z,102422.27
2019-01-12T03:05:23.722Z,102421.94
2019-01-12T03:06:25.182Z,102421.92
2019-01-12T03:07:25.584Z,102421.94
2019-01-12T03:08:25.888Z,102421.42
2019-01-12T03:09:26.174Z,102421.27
2019-01-12T03:10:26.622Z,102420.41
2019-01-12T03:11:27.011Z,102420.31
2019-01-12T03:12:27.456Z,102419.66
2019-01-12T03:13:27.709Z,102419.34
2019-01-12T03:14:28.693Z,102418.48
2019-01-12T03:15:28.927Z,102418.06
2019-01-12T03:16:29.380Z,102417.00
2019-01-12T03:16:38.463Z,102410.77
2019-01-12T03:17:38.275Z,102410.03
2019-01-12T03:18:39.581Z,102409.70
2019-01-12T03:19:39.842Z,102409.36
2019-01-12T03:20:40.072Z,102408.70
2019-01-12T03:21:40.375Z,102409.20
2019-01-12T03:22:40.917Z,102408.77
2019-01-12T03:23:41.173Z,102408.94
2019-01-12T03:24:41.515Z,102407.91
2019-01-12T03:25:41.803Z,102408.08
2019-01-12T03:26:42.185Z,102407.52
2019-01-12T03:27:42.542Z,102407.42
2019-01-12T03:28:43.033Z,102407.17
2019-01-12T03:29:43.376Z,102406.34
2019-01-12T03:30:43.647Z,102405.32
2019-01-12T03:31:44.117Z,102405.16
2019-01-12T03:32:44.489Z,102404.42
2019-01-12T03:33:44.851Z,102403.33
2019-01-12T03:34:45.203Z,102403.16
2019-01-12T03:35:45.612Z,102401.98
2019-01-12T03:36:46.092Z,102401.22
2019-01-12T03:37:46.328Z,102400.95
2019-01-12T03:38:46.532Z,102400.06
2019-01-12T03:39:46.825Z,102399.47
2019-01-12T03:40:47.084Z,102398.61
2019-01-12T03:41:47.375Z,102397.71
2019-01-12T03:42:47.619Z,102397.78
2019-01-12T03:43:47.912Z,102396.86
2019-01-12T03:44:48.155Z,102396.46
2019-01-12T03:45:48.439Z,102395.27
2019-01-12T03:46:49.062Z,102394.36
2019-01-12T03:47:49.368Z,102393.27
2019-01-12T03:48:49.654Z,102392.48
2019-01-12T03:49:49.931Z,102391.74
2019-01-12T03:50:50.351Z,102391.16
2019-01-12T03:51:50.656Z,102389.74
2019-01-12T03:52:51.415Z,102389.22
2019-01-12T03:53:51.855Z,102388.23
2019-01-12T03:54:52.073Z,102387.64
2019-01-12T03:55:52.362Z,102386.80
2019-01-12T03:56:52.918Z,102386.39
2019-01-12T03:57:53.260Z,102385.55
2019-01-12T03:58:53.570Z,102385.38
2019-01-12T03:59:53.821Z,102385.22
2019-01-12T04:00:54.094Z,102384.38
2019-01-12T04:01:02.518Z,102381.95
2019-01-12T04:02:03.781Z,102381.69
2019-01-12T04:03:03.976Z,102381.11
2019-01-12T04:04:04.318Z,102380.61
2019-01-12T04:05:04.748Z,102380.20
2019-01-12T04:06:05.039Z,102379.69
2019-01-12T04:07:05.437Z,102379.58
2019-01-12T04:08:06.203Z,102378.83
2019-01-12T04:09:06.507Z,102378.52
2019-01-12T04:10:06.768Z,102377.94
2019-01-12T04:11:07.124Z,102376.76
2019-01-12T04:12:07.435Z,102376.41
2019-01-12T04:13:07.675Z,102375.75
2019-01-12T04:14:07.988Z,102374.81
2019-01-12T04:15:08.275Z,102373.91
2019-01-12T04:16:08.696Z,102373.75
2019-01-12T04:17:08.992Z,102373.39
2019-01-12T04:18:09.269Z,102372.39
2019-01-12T04:19:09.547Z,102371.47
2019-01-12T04:20:09.769Z,102370.39
2019-01-12T04:21:10.470Z,102369.61
2019-01-12T04:22:10.824Z,102368.61
2019-01-12T04:23:11.208Z,102367.78
2019-01-12T04:24:11.760Z,102366.70
2019-01-12T04:25:12.006Z,102365.53
2019-01-12T04:26:12.351Z,102364.95
2019-01-12T04:27:12.502Z,102364.09
2019-01-12T04:28:13.152Z,102362.91
2019-01-12T04:29:13.547Z,102361.91
2019-01-12T04:30:14.001Z,102360.73
2019-01-12T04:31:14.488Z,102359.55
2019-01-12T04:32:14.817Z,102358.64
2019-01-12T04:33:15.268Z,102357.63
2019-01-12T04:34:15.522Z,102356.88
2019-01-12T04:35:15.986Z,102355.87
2019-01-12T04:36:16.253Z,102355.20
2019-01-12T04:37:16.571Z,102353.78
2019-01-12T04:38:17.027Z,102353.11
2019-01-12T04:39:17.362Z,102352.61
2019-01-12T04:40:17.651Z,102352.10
2019-01-12T04:41:17.965Z,102351.35
2019-01-12T04:42:18.185Z,102351.27
2019-01-12T04:43:18.453Z,102350.53
2019-01-12T04:44:18.748Z,102350.92
2019-01-12T04:44:27.183Z,102347.08
2019-01-12T04:45:27.706Z,102346.48
2019-01-12T04:46:29.046Z,102346.72
2019-01-12T04:47:29.335Z,102347.06
2019-01-12T04:48:29.678Z,102347.08
2019-01-12T04:49:29.912Z,102347.16
2019-01-12T04:50:30.409Z,102347.09
2019-01-12T04:51:30.678Z,102347.07
2019-01-12T04:52:30.955Z,102346.92
2019-01-12T04:53:31.332Z,102346.91
2019-01-12T04:54:31.747Z,102346.92
2019-01-12T04:55:32.069Z,102346.48
2019-01-12T04:56:32.371Z,102346.48
2019-01-12T04:57:32.850Z,102346.23
2019-01-12T04:58:33.536Z,102346.24
2019-01-12T04:59:34.276Z,102346.16
2019-01-12T05:00:34.659Z,102345.39
2019-01-12T05:01:34.964Z,102344.99
2019-01-12T05:02:35.240Z,102345.06
2019-01-12T05:03:35.547Z,102344.81
2019-01-12T05:04:36.073Z,102344.55
2019-01-12T05:05:36.330Z,102344.55
2019-01-12T05:06:36.639Z,102343.65
2019-01-12T05:07:37.118Z,102343.13
2019-01-12T05:08:37.739Z,102343.80
2019-01-12T05:09:38.013Z,102343.13
2019-01-12T05:10:38.320Z,102342.47
2019-01-12T05:11:38.725Z,102342.30
2019-01-12T05:12:39.096Z,102341.70
2019-01-12T05:13:39.324Z,102341.78
2019-01-12T05:14:39.591Z,102341.22
2019-01-12T05:15:40.156Z,102340.39
2019-01-12T05:16:40.936Z,102339.88
2019-01-12T05:17:41.515Z,102338.95
2019-01-12T05:18:40.748Z,102338.36
2019-01-12T05:19:42.010Z,102338.60
2019-01-12T05:20:42.399Z,102338.02
2019-01-12T05:21:42.682Z,102337.70
2019-01-12T05:22:42.942Z,102337.77
2019-01-12T05:23:43.153Z,102337.84
2019-01-12T05:24:43.514Z,102337.53
2019-01-12T05:25:48.849Z,102337.45
2019-01-12T05:26:43.190Z,102337.78
2019-01-12T05:27:44.452Z,102337.77
2019-01-12T05:28:44.729Z,102337.84
2019-01-12T05:29:44.972Z,102337.95
2019-01-12T05:29:53.872Z,102344.05
2019-01-12T05:30:55.503Z,102343.45
2019-01-12T05:31:55.808Z,102343.39
2019-01-12T05:32:56.027Z,102342.70
2019-01-12T05:33:55.567Z,102342.55
2019-01-12T05:34:56.868Z,102341.80
2019-01-12T05:35:57.186Z,102341.78
2019-01-12T05:36:57.403Z,102342.20
2019-01-12T05:37:57.795Z,102342.19
2019-01-12T05:38:59.289Z,102342.64
2019-01-12T05:39:59.572Z,102342.28
2019-01-12T05:40:58.926Z,102342.46
2019-01-12T05:41:59.358Z,102342.39
2019-01-12T05:43:00.140Z,102342.27
2019-01-12T05:44:00.437Z,102342.63
2019-01-12T05:45:01.015Z,102342.87
2019-01-12T05:46:01.153Z,102343.11
2019-01-12T05:47:01.606Z,102343.55
2019-01-12T05:48:02.148Z,102343.89
2019-01-12T05:49:02.642Z,102344.03
2019-01-12T05:50:03.340Z,102344.28
2019-01-12T05:51:03.613Z,102344.12
2019-01-12T05:52:02.963Z,102345.14
2019-01-12T05:53:04.198Z,102345.39
2019-01-12T05:54:04.658Z,102346.31
2019-01-12T05:55:04.917Z,102347.30
2019-01-12T05:56:05.219Z,102348.39
2019-01-12T05:57:05.504Z,102349.05
2019-01-12T05:58:05.880Z,102348.91
2019-01-12T05:59:06.241Z,102349.46
2019-01-12T06:00:06.649Z,102349.63
2019-01-12T06:01:06.962Z,102350.05
2019-01-12T06:02:07.519Z,102350.73
2019-01-12T06:03:07.928Z,102350.32
2019-01-12T06:04:08.175Z,102350.89
2019-01-12T06:05:08.548Z,102350.71
2019-01-12T06:06:09.070Z,102350.30
2019-01-12T06:07:09.550Z,102350.89
2019-01-12T06:08:08.834Z,102351.41
2019-01-12T06:09:10.034Z,102351.97
2019-01-12T06:10:10.368Z,102352.64
2019-01-12T06:11:10.646Z,102353.30
2019-01-12T06:12:10.873Z,102353.98
2019-01-12T06:13:11.494Z,102353.72
2019-01-12T06:14:11.866Z,102353.40
2019-01-12T06:15:12.188Z,102353.98
2019-01-12T06:15:20.485Z,102358.56
2019-01-12T06:16:21.832Z,102357.97
2019-01-12T06:17:22.127Z,102358.30
2019-01-12T06:18:22.513Z,102358.16
2019-01-12T06:19:23.435Z,102358.39
2019-01-12T06:20:23.684Z,102358.71
2019-01-12T06:21:24.168Z,102358.65
2019-01-12T06:22:24.381Z,102359.06
2019-01-12T06:23:25.140Z,102358.97
2019-01-12T06:24:25.396Z,102359.47
2019-01-12T06:25:25.676Z,102359.64
2019-01-12T06:26:25.953Z,102359.13
2019-01-12T06:27:26.405Z,102359.30
2019-01-12T06:28:26.674Z,102359.20
2019-01-12T06:29:27.070Z,102359.15
2019-01-12T06:30:27.546Z,102359.22
2019-01-12T06:31:27.868Z,102358.73
2019-01-12T06:32:28.636Z,102359.31
2019-01-12T06:33:29.151Z,102359.29
2019-01-12T06:34:29.409Z,102359.40
2019-01-12T06:35:29.636Z,102359.73
2019-01-12T06:36:30.194Z,102360.12
2019-01-12T06:37:30.431Z,102360.31
2019-01-12T06:38:30.787Z,102360.74
2019-01-12T06:39:31.163Z,102361.08
2019-01-12T06:40:32.055Z,102360.91
2019-01-12T06:41:32.778Z,102360.81
2019-01-12T06:42:33.083Z,102360.55
2019-01-12T06:43:33.376Z,102360.80
2019-01-12T06:44:33.598Z,102361.13
2019-01-12T06:45:33.800Z,102361.07
2019-01-12T06:46:34.162Z,102361.31
2019-01-12T06:47:34.338Z,102361.65
2019-01-12T06:48:34.752Z,102362.22
2019-01-12T06:49:35.291Z,102361.73
2019-01-12T06:50:35.761Z,102361.47
2019-01-12T06:51:36.059Z,102361.49
2019-01-12T06:52:36.381Z,102361.23
2019-01-12T06:53:36.644Z,102360.88
2019-01-12T06:54:36.945Z,102360.72
2019-01-12T06:55:37.370Z,102360.37
2019-01-12T06:56:37.751Z,102359.52
2019-01-12T06:57:38.105Z,102359.61
2019-01-12T06:58:38.658Z,102359.88
2019-01-12T06:59:38.804Z,102359.27
2019-01-12T07:00:39.030Z,102359.69
2019-01-12T07:01:39.500Z,102359.52
2019-01-12T07:02:39.336Z,102359.52
2019-01-12T07:02:51.778Z,102361.50
2019-01-12T07:03:52.818Z,102361.20
2019-01-12T07:04:51.959Z,102361.78
2019-01-12T07:05:52.912Z,102361.89
2019-01-12T07:06:53.928Z,102362.22
2019-01-12T07:07:53.849Z,102362.45
2019-01-12T07:08:55.431Z,102362.62
2019-01-12T07:09:54.884Z,102362.55
2019-01-12T07:10:56.413Z,102362.16
2019-01-12T07:11:57.559Z,102362.56
2019-01-12T07:12:56.329Z,102362.66
2019-01-12T07:13:57.701Z,102363.08
2019-01-12T07:14:58.327Z,102363.84
2019-01-12T07:15:58.963Z,102364.34
2019-01-12T07:16:58.085Z,102365.17
2019-01-12T07:17:58.481Z,102365.44
2019-01-12T07:18:58.749Z,102366.03
2019-01-12T07:20:00.174Z,102366.09
2019-01-12T07:21:00.182Z,102365.84
2019-01-12T07:22:00.438Z,102365.94
2019-01-12T07:23:02.345Z,102365.77
2019-01-12T07:24:01.906Z,102365.45
2019-01-12T07:25:02.835Z,102365.43
2019-01-12T07:26:04.848Z,102365.43
2019-01-12T07:27:05.970Z,102365.52
2019-01-12T07:28:05.532Z,102365.28
2019-01-12T07:29:06.793Z,102364.78
2019-01-12T07:30:07.066Z,102365.17
2019-01-12T07:31:07.693Z,102364.61
2019-01-12T07:32:06.675Z,102364.67
2019-01-12T07:33:08.774Z,102364.36
2019-01-12T07:34:07.950Z,102364.17
2019-01-12T07:35:08.938Z,102364.03
2019-01-12T07:36:09.901Z,102363.92
2019-01-12T07:37:10.836Z,102363.61
2019-01-12T07:38:11.148Z,102363.03
2019-01-12T07:39:10.241Z,102363.37
2019-01-12T07:40:10.402Z,102363.02
2019-01-12T07:41:10.687Z,102362.52
2019-01-12T07:42:10.670Z,102361.83
2019-01-12T07:43:12.170Z,102361.94
2019-01-12T07:44:12.356Z,102362.02
2019-01-12T07:45:11.531Z,102361.59
2019-01-12T07:46:11.374Z,102361.27
2019-01-12T07:47:13.286Z,102361.34
2019-01-12T07:48:13.686Z,102361.00
2019-01-12T07:49:14.008Z,102360.67
2019-01-12T07:50:14.390Z,102360.50
2019-01-12T07:51:14.612Z,102359.92
2019-01-12T07:52:15.075Z,102359.59
2019-01-12T07:53:15.321Z,102359.09
2019-01-12T07:54:15.662Z,102359.16
2019-01-12T07:55:15.905Z,102358.91
2019-01-12T07:56:16.222Z,102358.07
2019-01-12T07:57:16.610Z,102358.16
2019-01-12T07:58:16.970Z,102357.99
2019-01-12T07:59:17.489Z,102357.56
2019-01-12T08:00:18.288Z,102357.52
2019-01-12T08:01:18.536Z,102357.50
2019-01-12T08:02:18.759Z,102357.41
2019-01-12T08:03:19.013Z,102357.83
2019-01-12T08:04:19.542Z,102357.66
2019-01-12T08:04:27.929Z,102355.70
2019-01-12T08:05:29.139Z,102355.27
2019-01-12T08:06:29.421Z,102355.17
2019-01-12T08:07:29.999Z,102355.09
2019-01-12T08:08:30.575Z,102355.25
2019-01-12T08:09:31.015Z,102355.67
2019-01-12T08:10:31.272Z,102355.94
2019-01-12T08:11:31.747Z,102355.61
2019-01-12T08:12:32.178Z,102355.87
2019-01-12T08:13:32.593Z,102355.70
2019-01-12T08:14:33.087Z,102355.61
2019-01-12T08:15:33.304Z,102356.53
2019-01-12T08:16:33.597Z,102356.70
2019-01-12T08:17:34.070Z,102356.53
2019-01-12T08:18:34.661Z,102356.78
2019-01-12T08:19:34.953Z,102356.52
2019-01-12T08:20:35.235Z,102356.18
2019-01-12T08:21:35.501Z,102355.75
2019-01-12T08:22:35.894Z,102355.36
2019-01-12T08:23:36.747Z,102354.34
2019-01-12T08:24:37.040Z,102353.16
2019-01-12T08:25:37.383Z,102352.34
2019-01-12T08:26:37.802Z,102350.98
2019-01-12T08:27:38.182Z,102349.66
2019-01-12T08:28:38.602Z,102348.98
2019-01-12T08:29:38.920Z,102347.39
2019-01-12T08:30:39.486Z,102346.48
2019-01-12T08:31:39.933Z,102345.21
2019-01-12T08:32:40.326Z,102344.12
2019-01-12T08:33:40.618Z,102343.44
2019-01-12T08:34:40.918Z,102342.28
2019-01-12T08:35:41.363Z,102341.62
2019-01-12T08:36:41.816Z,102340.86
2019-01-12T08:37:42.212Z,102339.59
2019-01-12T08:38:42.591Z,102339.09
2019-01-12T08:39:42.841Z,102338.69
2019-01-12T08:40:43.191Z,102338.69
2019-01-12T08:41:43.525Z,102338.69
2019-01-12T08:42:43.790Z,102338.36
2019-01-12T08:43:44.083Z,102337.69
2019-01-12T08:44:44.742Z,102337.41
2019-01-12T08:45:45.040Z,102336.93
2019-01-12T08:46:45.362Z,102336.36
2019-01-12T08:47:45.732Z,102335.58
2019-01-12T08:47:54.050Z,102325.24
2019-01-12T08:48:55.517Z,102324.48
2019-01-12T08:49:55.815Z,102323.88
2019-01-12T08:50:56.154Z,102323.12
2019-01-12T08:51:56.462Z,102322.28
2019-01-12T08:52:57.068Z,102321.45
2019-01-12T08:53:57.336Z,102319.94
2019-01-12T08:54:57.679Z,102318.86
2019-01-12T08:55:57.929Z,102317.42
2019-01-12T08:56:58.264Z,102316.69
2019-01-12T08:57:58.567Z,102315.94
2019-01-12T08:58:58.887Z,102314.52
2019-01-12T08:59:59.248Z,102313.34
2019-01-12T09:00:59.634Z,102311.93
2019-01-12T09:02:00.216Z,102310.31
2019-01-12T09:03:00.480Z,102308.47
2019-01-12T09:04:00.782Z,102307.41
2019-01-12T09:05:00.165Z,102306.13
2019-01-12T09:06:01.470Z,102305.15
2019-01-12T09:07:01.896Z,102303.21
2019-01-12T09:08:02.286Z,102301.97
2019-01-12T09:09:02.632Z,102300.80
2019-01-12T09:10:03.070Z,102300.05
2019-01-12T09:11:03.766Z,102299.22
2019-01-12T09:12:04.026Z,102298.05
2019-01-12T09:13:04.374Z,102297.09
2019-01-12T09:14:05.184Z,102295.76
2019-01-12T09:15:06.106Z,102294.92
2019-01-12T09:16:06.383Z,102294.25
2019-01-12T09:17:05.686Z,102292.86
2019-01-12T09:18:07.068Z,102291.69
2019-01-12T09:19:07.359Z,102289.92
2019-01-12T09:20:07.925Z,102288.31
2019-01-12T09:21:08.392Z,102286.81
2019-01-12T09:22:08.740Z,102285.16
2019-01-12T09:23:09.186Z,102283.80
2019-01-12T09:24:09.476Z,102283.20
2019-01-12T09:25:10.127Z,102281.70
2019-01-12T09:26:10.540Z,102280.11
2019-01-12T09:27:10.801Z,102279.04
2019-01-12T09:28:11.193Z,102278.20
2019-01-12T09:29:11.478Z,102277.20
2019-01-12T09:30:11.740Z,102276.52
2019-01-12T09:31:12.033Z,102275.77
2019-01-12T09:32:12.491Z,102274.84
2019-01-12T09:33:12.789Z,102273.27
2019-01-12T09:33:20.841Z,102249.73
2019-01-12T09:34:22.108Z,102249.56
2019-01-12T09:35:22.346Z,102249.89
2019-01-12T09:36:22.604Z,102249.66
2019-01-12T09:37:22.997Z,102249.34
2019-01-12T09:38:23.258Z,102248.56
2019-01-12T09:39:23.704Z,102248.15
2019-01-12T09:40:23.941Z,102247.74
2019-01-12T09:41:24.456Z,102248.39
2019-01-12T09:42:24.684Z,102248.16
2019-01-12T09:43:25.225Z,102248.58
2019-01-12T09:44:25.506Z,102249.52
2019-01-12T09:45:25.751Z,102250.41
2019-01-12T09:46:26.417Z,102251.98
2019-01-12T09:47:26.792Z,102253.78
2019-01-12T09:48:27.168Z,102255.53
2019-01-12T09:49:27.506Z,102257.61
2019-01-12T09:50:27.912Z,102259.47
2019-01-12T09:51:28.240Z,102261.73
2019-01-12T09:52:28.500Z,102263.39
2019-01-12T09:53:28.794Z,102264.15
2019-01-12T09:54:29.090Z,102265.58
2019-01-12T09:55:29.612Z,102265.81
2019-01-12T09:56:30.096Z,102264.64
2019-01-12T09:57:30.412Z,102263.30
2019-01-12T09:58:30.760Z,102261.14
2019-01-12T09:59:30.996Z,102259.70
2019-01-12T10:00:31.248Z,102258.53
2019-01-12T10:01:31.693Z,102257.44
2019-01-12T10:02:32.211Z,102256.04
2019-01-12T10:03:31.913Z,102253.86
2019-01-12T10:04:33.198Z,102251.74
2019-01-12T10:05:33.907Z,102249.66
2019-01-12T10:06:34.205Z,102246.98
2019-01-12T10:07:34.623Z,102245.66
2019-01-12T10:08:34.860Z,102243.55
2019-01-12T10:09:35.218Z,102241.29
2019-01-12T10:10:35.686Z,102238.97
2019-01-12T10:11:36.001Z,102235.94
2019-01-12T10:12:36.505Z,102233.43
2019-01-12T10:14:36.236Z,102226.90
2019-01-12T10:15:37.860Z,102223.70
2019-01-12T10:15:46.187Z,102178.07
2019-01-12T10:16:47.418Z,102177.67
2019-01-12T10:17:47.700Z,102177.92
2019-01-12T10:18:47.979Z,102176.00
2019-01-12T10:19:48.385Z,102175.31
2019-01-12T10:20:48.752Z,102174.50
2019-01-12T10:21:49.336Z,102172.30
2019-01-12T10:22:48.793Z,102171.04
2019-01-12T10:23:50.231Z,102169.61
2019-01-12T10:24:50.675Z,102168.04
2019-01-12T10:25:51.175Z,102166.69
2019-01-12T10:26:50.455Z,102164.59
2019-01-12T10:27:51.800Z,102162.65
2019-01-12T10:28:52.159Z,102160.66
2019-01-12T10:29:52.392Z,102158.80
2019-01-12T10:30:52.695Z,102156.64
2019-01-12T10:31:53.039Z,102154.39
2019-01-12T10:32:53.369Z,102152.70
2019-01-12T10:33:53.625Z,102150.28
2019-01-12T10:34:53.920Z,102148.42
2019-01-12T10:35:54.208Z,102145.91
2019-01-12T10:36:54.481Z,102143.31
2019-01-12T10:37:54.716Z,102140.95
2019-01-12T10:38:55.301Z,102139.47
2019-01-12T10:39:55.548Z,102136.94
2019-01-12T10:40:55.882Z,102135.20
2019-01-12T10:41:56.174Z,102132.25
2019-01-12T10:42:56.575Z,102130.92
2019-01-12T10:43:56.874Z,102130.00
2019-01-12T10:44:57.099Z,102128.13
2019-01-12T10:45:57.404Z,102126.40
2019-01-12T10:46:57.889Z,102124.97
2019-01-12T10:47:58.122Z,102123.78
2019-01-12T10:48:58.360Z,102122.34
2019-01-12T10:49:58.631Z,102120.86
2019-01-12T10:50:59.108Z,102119.59
2019-01-12T10:51:59.354Z,102118.49
2019-01-12T10:52:59.706Z,102117.27
2019-01-12T10:53:59.996Z,102116.16
2019-01-12T10:55:00.459Z,102114.73
2019-01-12T10:56:00.459Z,102113.38
2019-01-12T10:57:05.461Z,102112.55
2019-01-12T10:58:00.120Z,102111.47
2019-01-12T10:59:00.337Z,102110.12
2019-01-12T11:00:01.567Z,102108.20
2019-01-12T11:00:11.628Z,102083.88
2019-01-12T11:01:12.874Z,102082.78
2019-01-12T11:02:13.331Z,102083.12
2019-01-12T11:03:12.617Z,102082.86
2019-01-12T11:04:14.077Z,102082.69
2019-01-12T11:05:14.412Z,102082.38
2019-01-12T11:06:14.702Z,102082.30
2019-01-12T11:07:15.207Z,102080.94
2019-01-12T11:08:14.467Z,102080.34
2019-01-12T11:09:15.803Z,102079.67
2019-01-12T11:10:16.079Z,102078.11
2019-01-12T11:11:16.718Z,102077.34
2019-01-12T11:12:17.177Z,102076.08
2019-01-12T11:13:17.559Z,102074.98
2019-01-12T11:14:17.904Z,102074.48
2019-01-12T11:15:18.409Z,102072.33
2019-01-12T11:16:18.660Z,102070.73
2019-01-12T11:17:18.932Z,102069.91